^^
Station Historical Data
Daily Summary for June 2, 2017 Units:  Both    English   Metric
« Previous Day
Next Day »
Daily Weekly Monthly Yearly Custom
  High: Low: Average:
Temperature: 72.7 °F /  22.6 °C 42.4 °F /  5.8 °C 56.7 °F /  13.7 °C
Dew Point: 38.7 °F /  3.7 °C 29.8 °F /  -1.2 °C 33.2 °F /  0.7 °C
Humidity: 69% 21% 44%
Wind Speed: 8.9mph /  14.3km/h - 0.6mph /  1km/h
Wind Gust: 11.0mph /  17.7km/h - -
Wind- - SE
Pressure: 30.43 in /  1030.4 hPa 30.30 in /  1026 hPa -
Precipitation: 0.00 in /  0 mm    
Historical Graphs
 
 
Tabular Data for June 2, 2017
Time Temperature Dew Point Pressure Wind Wind Speed Wind Gust Humidity Rainfall Rate (Hourly) solar Conditions
00:04 48.4 °F /  9.1 °C 34.7 °F /  1.5 °C 30.41in /  1029.7hPa Calm     59% 0.00in /  0mm 0.0 W/m2
00:10 48.4 °F /  9.1 °C 34.7 °F /  1.5 °C 30.41in /  1029.7hPa Calm   1.0mph /  1.6km/h 59% 0.00in /  0mm 0.0 W/m2
00:16 48.4 °F /  9.1 °C 34.7 °F /  1.5 °C 30.41in /  1029.7hPa Calm     59% 0.00in /  0mm 0.0 W/m2
00:22 48.2 °F /  9 °C 34.5 °F /  1.4 °C 30.41in /  1029.7hPa Calm   1.0mph /  1.6km/h 59% 0.00in /  0mm 0.0 W/m2
00:28 48.0 °F /  8.9 °C 34.9 °F /  1.6 °C 30.41in /  1029.7hPa Calm     60% 0.00in /  0mm 0.0 W/m2
00:34 47.8 °F /  8.8 °C 34.7 °F /  1.5 °C 30.41in /  1029.7hPa Calm   1.0mph /  1.6km/h 60% 0.00in /  0mm 0.0 W/m2
00:41 47.8 °F /  8.8 °C 34.7 °F /  1.5 °C 30.41in /  1029.7hPa Calm     60% 0.00in /  0mm 0.0 W/m2
00:47 47.7 °F /  8.7 °C 34.5 °F /  1.4 °C 30.41in /  1029.7hPa Calm     60% 0.00in /  0mm 0.0 W/m2
00:53 47.5 °F /  8.6 °C 34.3 °F /  1.3 °C 30.41in /  1029.7hPa Calm     60% 0.00in /  0mm 0.0 W/m2
00:59 47.3 °F /  8.5 °C 34.5 °F /  1.4 °C 30.41in /  1029.7hPa Calm     61% 0.00in /  0mm 0.0 W/m2
01:05 47.1 °F /  8.4 °C 34.3 °F /  1.3 °C 30.41in /  1029.7hPa Calm   1.0mph /  1.6km/h 61% 0.00in /  0mm 0.0 W/m2
01:11 47.3 °F /  8.5 °C 34.5 °F /  1.4 °C 30.40in /  1029.3hPa ESE 0.9mph /  1.4km/h 3.0mph /  4.8km/h 61% 0.00in /  0mm 0.0 W/m2
01:17 47.3 °F /  8.5 °C 34.5 °F /  1.4 °C 30.41in /  1029.7hPa Calm     61% 0.00in /  0mm 0.0 W/m2
01:23 47.3 °F /  8.5 °C 34.5 °F /  1.4 °C 30.41in /  1029.7hPa Calm   1.0mph /  1.6km/h 61% 0.00in /  0mm 0.0 W/m2
01:29 47.1 °F /  8.4 °C 34.3 °F /  1.3 °C 30.41in /  1029.7hPa Calm     61% 0.00in /  0mm 0.0 W/m2
01:36 47.1 °F /  8.4 °C 34.3 °F /  1.3 °C 30.41in /  1029.7hPa Calm     61% 0.00in /  0mm 0.0 W/m2
01:42 46.9 °F /  8.3 °C 34.2 °F /  1.2 °C 30.41in /  1029.7hPa Calm     61% 0.00in /  0mm 0.0 W/m2
01:48 46.8 °F /  8.2 °C 34.5 °F /  1.4 °C 30.40in /  1029.3hPa Calm     62% 0.00in /  0mm 0.0 W/m2
01:54 46.8 °F /  8.2 °C 34.5 °F /  1.4 °C 30.41in /  1029.7hPa Calm   1.0mph /  1.6km/h 62% 0.00in /  0mm 0.0 W/m2
02:00 46.6 °F /  8.1 °C 34.3 °F /  1.3 °C 30.41in /  1029.7hPa Calm     62% 0.00in /  0mm 0.0 W/m2
02:06 46.6 °F /  8.1 °C 34.3 °F /  1.3 °C 30.41in /  1029.7hPa Calm   1.0mph /  1.6km/h 62% 0.00in /  0mm 0.0 W/m2
02:12 46.6 °F /  8.1 °C 34.3 °F /  1.3 °C 30.41in /  1029.7hPa East 0.9mph /  1.4km/h 1.0mph /  1.6km/h 62% 0.00in /  0mm 0.0 W/m2
02:18 46.6 °F /  8.1 °C 34.3 °F /  1.3 °C 30.41in /  1029.7hPa Calm   1.0mph /  1.6km/h 62% 0.00in /  0mm 0.0 W/m2
02:25 46.2 °F /  7.9 °C 34.0 °F /  1.1 °C 30.41in /  1029.7hPa Calm   2.0mph /  3.2km/h 62% 0.00in /  0mm 0.0 W/m2
02:31 46.0 °F /  7.8 °C 34.2 °F /  1.2 °C 30.41in /  1029.7hPa Calm   1.0mph /  1.6km/h 63% 0.00in /  0mm 0.0 W/m2
02:37 45.9 °F /  7.7 °C 34.0 °F /  1.1 °C 30.41in /  1029.7hPa Calm   1.0mph /  1.6km/h 63% 0.00in /  0mm 0.0 W/m2
02:43 45.9 °F /  7.7 °C 34.0 °F /  1.1 °C 30.40in /  1029.3hPa Calm   1.0mph /  1.6km/h 63% 0.00in /  0mm 0.0 W/m2
02:49 45.9 °F /  7.7 °C 34.3 °F /  1.3 °C 30.40in /  1029.3hPa Calm   2.0mph /  3.2km/h 64% 0.00in /  0mm 0.0 W/m2
02:55 45.9 °F /  7.7 °C 34.0 °F /  1.1 °C 30.40in /  1029.3hPa Calm     63% 0.00in /  0mm 0.0 W/m2
03:01 45.9 °F /  7.7 °C 34.0 °F /  1.1 °C 30.40in /  1029.3hPa Calm     63% 0.00in /  0mm 0.0 W/m2
03:07 45.7 °F /  7.6 °C 33.8 °F /  1 °C 30.40in /  1029.3hPa Calm     63% 0.00in /  0mm 0.0 W/m2
03:13 45.5 °F /  7.5 °C 34.0 °F /  1.1 °C 30.40in /  1029.3hPa Calm     64% 0.00in /  0mm 0.0 W/m2
03:20 45.1 °F /  7.3 °C 33.6 °F /  0.9 °C 30.40in /  1029.3hPa Calm     64% 0.00in /  0mm 0.0 W/m2
03:26 45.0 °F /  7.2 °C 34.0 °F /  1.1 °C 30.40in /  1029.3hPa Calm     65% 0.00in /  0mm 0.0 W/m2
03:32 44.8 °F /  7.1 °C 33.8 °F /  1 °C 30.40in /  1029.3hPa Calm   1.0mph /  1.6km/h 65% 0.00in /  0mm 0.0 W/m2
03:38 44.4 °F /  6.9 °C 33.4 °F /  0.8 °C 30.40in /  1029.3hPa Calm   2.0mph /  3.2km/h 65% 0.00in /  0mm 0.0 W/m2
03:44 44.4 °F /  6.9 °C 33.4 °F /  0.8 °C 30.40in /  1029.3hPa Calm     65% 0.00in /  0mm 0.0 W/m2
03:50 44.2 °F /  6.8 °C 33.3 °F /  0.7 °C 30.40in /  1029.3hPa Calm     65% 0.00in /  0mm 0.0 W/m2
03:56 44.4 °F /  6.9 °C 33.4 °F /  0.8 °C 30.39in /  1029hPa Calm     65% 0.00in /  0mm 0.0 W/m2
04:02 44.4 °F /  6.9 °C 33.4 °F /  0.8 °C 30.40in /  1029.3hPa Calm   1.0mph /  1.6km/h 65% 0.00in /  0mm 0.0 W/m2
04:08 44.4 °F /  6.9 °C 33.8 °F /  1 °C 30.40in /  1029.3hPa Calm   1.0mph /  1.6km/h 66% 0.00in /  0mm 0.0 W/m2
04:15 44.4 °F /  6.9 °C 33.4 °F /  0.8 °C 30.40in /  1029.3hPa Calm   1.0mph /  1.6km/h 65% 0.00in /  0mm 0.0 W/m2
04:21 44.4 °F /  6.9 °C 33.4 °F /  0.8 °C 30.39in /  1029hPa Calm   1.0mph /  1.6km/h 65% 0.00in /  0mm 0.0 W/m2
04:27 44.1 °F /  6.7 °C 33.1 °F /  0.6 °C 30.39in /  1029hPa Calm     65% 0.00in /  0mm 0.0 W/m2
04:33 43.9 °F /  6.6 °C 33.3 °F /  0.7 °C 30.39in /  1029hPa East 0.9mph /  1.4km/h 2.0mph /  3.2km/h 66% 0.00in /  0mm 0.0 W/m2
04:39 43.5 °F /  6.4 °C 33.3 °F /  0.7 °C 30.39in /  1029hPa East 0.9mph /  1.4km/h 1.0mph /  1.6km/h 67% 0.00in /  0mm 0.0 W/m2
04:43 43.5 °F /  6.4 °C 33.3 °F /  0.7 °C 30.39in /  1029hPa Calm   1.0mph /  1.6km/h 67% 0.00in /  0mm 0.0 W/m2
04:49 43.7 °F /  6.5 °C 33.4 °F /  0.8 °C 30.39in /  1029hPa Calm     67% 0.00in /  0mm 0.0 W/m2
04:55 43.9 °F /  6.6 °C 33.3 °F /  0.7 °C 30.40in /  1029.3hPa Calm     66% 0.00in /  0mm 0.0 W/m2
05:01 43.9 °F /  6.6 °C 33.3 °F /  0.7 °C 30.40in /  1029.3hPa Calm     66% 0.00in /  0mm 0.0 W/m2
05:07 43.9 °F /  6.6 °C 33.3 °F /  0.7 °C 30.39in /  1029hPa Calm     66% 0.00in /  0mm 0.0 W/m2
05:13 43.9 °F /  6.6 °C 33.3 °F /  0.7 °C 30.39in /  1029hPa Calm     66% 0.00in /  0mm 0.0 W/m2
05:19 43.7 °F /  6.5 °C 33.1 °F /  0.6 °C 30.39in /  1029hPa Calm     66% 0.00in /  0mm 0.0 W/m2
05:25 43.3 °F /  6.3 °C 33.1 °F /  0.6 °C 30.39in /  1029hPa Calm     67% 0.00in /  0mm 0.0 W/m2
05:31 43.2 °F /  6.2 °C 32.9 °F /  0.5 °C 30.39in /  1029hPa Calm   1.0mph /  1.6km/h 67% 0.00in /  0mm 0.0 W/m2
05:37 43.2 °F /  6.2 °C 32.9 °F /  0.5 °C 30.40in /  1029.3hPa Calm     67% 0.00in /  0mm 0.0 W/m2
05:43 43.0 °F /  6.1 °C 33.1 °F /  0.6 °C 30.40in /  1029.3hPa Calm     68% 0.00in /  0mm 0.0 W/m2
05:49 42.6 °F /  5.9 °C 32.7 °F /  0.4 °C 30.40in /  1029.3hPa Calm   1.0mph /  1.6km/h 68% 0.00in /  0mm 0.0 W/m2
05:55 42.6 °F /  5.9 °C 33.1 °F /  0.6 °C 30.40in /  1029.3hPa Calm     69% 0.00in /  0mm 0.0 W/m2
06:01 42.4 °F /  5.8 °C 33.1 °F /  0.6 °C 30.40in /  1029.3hPa Calm   2.0mph /  3.2km/h 69% 0.00in /  0mm 0.0 W/m2
06:07 42.4 °F /  5.8 °C 33.1 °F /  0.6 °C 30.40in /  1029.3hPa Calm     69% 0.00in /  0mm 0.0 W/m2
06:13 42.6 °F /  5.9 °C 33.1 °F /  0.6 °C 30.40in /  1029.3hPa Calm   2.0mph /  3.2km/h 69% 0.00in /  0mm 0.0 W/m2
06:19 42.8 °F /  6 °C 33.3 °F /  0.7 °C 30.40in /  1029.3hPa Calm     69% 0.00in /  0mm 0.0 W/m2
06:25 43.0 °F /  6.1 °C 33.4 °F /  0.8 °C 30.41in /  1029.7hPa Calm     69% 0.00in /  0mm 0.0 W/m2
06:31 43.0 °F /  6.1 °C 33.4 °F /  0.8 °C 30.40in /  1029.3hPa Calm   1.0mph /  1.6km/h 69% 0.00in /  0mm 5.0 W/m2
06:37 43.0 °F /  6.1 °C 33.4 °F /  0.8 °C 30.41in /  1029.7hPa Calm     69% 0.00in /  0mm 9.0 W/m2
06:43 43.0 °F /  6.1 °C 33.4 °F /  0.8 °C 30.41in /  1029.7hPa Calm   1.0mph /  1.6km/h 69% 0.00in /  0mm 11.0 W/m2
06:49 43.2 °F /  6.2 °C 33.3 °F /  0.7 °C 30.41in /  1029.7hPa Calm   1.0mph /  1.6km/h 68% 0.00in /  0mm 12.0 W/m2
06:55 43.5 °F /  6.4 °C 33.6 °F /  0.9 °C 30.41in /  1029.7hPa NE 0.9mph /  1.4km/h 1.0mph /  1.6km/h 68% 0.00in /  0mm 14.0 W/m2
07:01 44.1 °F /  6.7 °C 33.8 °F /  1 °C 30.41in /  1029.7hPa Calm   2.0mph /  3.2km/h 67% 0.00in /  0mm 16.0 W/m2
07:07 44.6 °F /  7 °C 34.0 °F /  1.1 °C 30.42in /  1030hPa Calm   2.0mph /  3.2km/h 66% 0.00in /  0mm 19.0 W/m2
07:13 45.0 °F /  7.2 °C 34.0 °F /  1.1 °C 30.42in /  1030hPa Calm   3.0mph /  4.8km/h 65% 0.00in /  0mm 25.0 W/m2
07:19 45.7 °F /  7.6 °C 34.2 °F /  1.2 °C 30.42in /  1030hPa ENE 2.0mph /  3.2km/h 4.0mph /  6.4km/h 64% 0.00in /  0mm 32.0 W/m2
07:25 46.0 °F /  7.8 °C 34.5 °F /  1.4 °C 30.42in /  1030hPa East 0.9mph /  1.4km/h 2.0mph /  3.2km/h 64% 0.00in /  0mm 35.0 W/m2
07:31 46.4 °F /  8 °C 34.9 °F /  1.6 °C 30.42in /  1030hPa Calm   3.0mph /  4.8km/h 64% 0.00in /  0mm 33.0 W/m2
07:37 46.6 °F /  8.1 °C 35.1 °F /  1.7 °C 30.42in /  1030hPa Calm   1.0mph /  1.6km/h 64% 0.00in /  0mm 30.0 W/m2
07:43 46.8 °F /  8.2 °C 35.2 °F /  1.8 °C 30.42in /  1030hPa Calm   2.0mph /  3.2km/h 64% 0.00in /  0mm 28.0 W/m2
07:49 47.1 °F /  8.4 °C 35.6 °F /  2 °C 30.42in /  1030hPa Calm     64% 0.00in /  0mm 33.0 W/m2
08:01 50.4 °F /  10.2 °C 36.5 °F /  2.5 °C 30.43in /  1030.4hPa Calm     59% 0.00in /  0mm 260.0 W/m2
08:07 53.1 °F /  11.7 °C 36.3 °F /  2.4 °C 30.42in /  1030hPa NE 0.9mph /  1.4km/h 1.0mph /  1.6km/h 53% 0.00in /  0mm 301.0 W/m2
08:13 55.4 °F /  13 °C 37.0 °F /  2.8 °C 30.43in /  1030.4hPa NE 0.9mph /  1.4km/h 3.0mph /  4.8km/h 50% 0.00in /  0mm 348.0 W/m2
08:19 57.4 °F /  14.1 °C 37.4 °F /  3 °C 30.42in /  1030hPa Calm   1.0mph /  1.6km/h 47% 0.00in /  0mm 357.0 W/m2
08:25 58.8 °F /  14.9 °C 37.6 °F /  3.1 °C 30.42in /  1030hPa Calm   2.0mph /  3.2km/h 45% 0.00in /  0mm 360.0 W/m2
08:31 59.7 °F /  15.4 °C 36.0 °F /  2.2 °C 30.42in /  1030hPa Calm   3.0mph /  4.8km/h 41% 0.00in /  0mm 367.0 W/m2
08:37 60.8 °F /  16 °C 36.9 °F /  2.7 °C 30.42in /  1030hPa Calm   1.0mph /  1.6km/h 41% 0.00in /  0mm 417.0 W/m2
08:43 61.9 °F /  16.6 °C 36.0 °F /  2.2 °C 30.42in /  1030hPa Calm   1.0mph /  1.6km/h 38% 0.00in /  0mm 441.0 W/m2
08:49 62.8 °F /  17.1 °C 36.9 °F /  2.7 °C 30.43in /  1030.4hPa Calm   1.0mph /  1.6km/h 38% 0.00in /  0mm 459.0 W/m2
08:55 62.4 °F /  16.9 °C 35.8 °F /  2.1 °C 30.43in /  1030.4hPa Calm   1.0mph /  1.6km/h 37% 0.00in /  0mm 480.0 W/m2
09:01 63.1 °F /  17.3 °C 36.5 °F /  2.5 °C 30.43in /  1030.4hPa Calm     37% 0.00in /  0mm 494.0 W/m2
09:07 64.0 °F /  17.8 °C 36.5 °F /  2.5 °C 30.43in /  1030.4hPa Calm   1.0mph /  1.6km/h 36% 0.00in /  0mm 504.0 W/m2
09:13 64.9 °F /  18.3 °C 37.4 °F /  3 °C 30.43in /  1030.4hPa West 0.9mph /  1.4km/h 1.0mph /  1.6km/h 36% 0.00in /  0mm 520.0 W/m2
09:19 64.9 °F /  18.3 °C 36.7 °F /  2.6 °C 30.43in /  1030.4hPa Calm   2.0mph /  3.2km/h 35% 0.00in /  0mm 543.0 W/m2
09:25 64.8 °F /  18.2 °C 37.2 °F /  2.9 °C 30.43in /  1030.4hPa WNW 0.9mph /  1.4km/h 1.0mph /  1.6km/h 36% 0.00in /  0mm 571.0 W/m2
09:31 65.3 °F /  18.5 °C 36.9 °F /  2.7 °C 30.43in /  1030.4hPa Calm   2.0mph /  3.2km/h 35% 0.00in /  0mm 561.0 W/m2
09:37 65.7 °F /  18.7 °C 37.2 °F /  2.9 °C 30.43in /  1030.4hPa Calm   1.0mph /  1.6km/h 35% 0.00in /  0mm 571.0 W/m2
09:43 66.0 °F /  18.9 °C 37.6 °F /  3.1 °C 30.43in /  1030.4hPa WSW 0.9mph /  1.4km/h 3.0mph /  4.8km/h 35% 0.00in /  0mm 592.0 W/m2
09:49 66.4 °F /  19.1 °C 38.7 °F /  3.7 °C 30.42in /  1030hPa Calm   1.0mph /  1.6km/h 36% 0.00in /  0mm 610.0 W/m2
09:55 66.9 °F /  19.4 °C 36.9 °F /  2.7 °C 30.42in /  1030hPa Calm   2.0mph /  3.2km/h 33% 0.00in /  0mm 624.0 W/m2
10:01 67.5 °F /  19.7 °C 36.5 °F /  2.5 °C 30.42in /  1030hPa NNE 2.9mph /  4.7km/h 5.0mph /  8km/h 32% 0.00in /  0mm 622.0 W/m2
10:07 67.8 °F /  19.9 °C 36.9 °F /  2.7 °C 30.42in /  1030hPa NNW 2.0mph /  3.2km/h 6.0mph /  9.7km/h 32% 0.00in /  0mm 613.0 W/m2
10:13 68.2 °F /  20.1 °C 35.6 °F /  2 °C 30.42in /  1030hPa NNW 2.0mph /  3.2km/h 7.0mph /  11.3km/h 30% 0.00in /  0mm 656.0 W/m2
10:19 68.4 °F /  20.2 °C 36.5 °F /  2.5 °C 30.42in /  1030hPa NE 0.9mph /  1.4km/h 1.0mph /  1.6km/h 31% 0.00in /  0mm 666.0 W/m2
10:25 68.7 °F /  20.4 °C 36.0 °F /  2.2 °C 30.42in /  1030hPa Calm   2.0mph /  3.2km/h 30% 0.00in /  0mm 645.0 W/m2
10:31 69.1 °F /  20.6 °C 35.4 °F /  1.9 °C 30.41in /  1029.7hPa Calm   5.0mph /  8km/h 29% 0.00in /  0mm 663.0 W/m2
10:37 69.3 °F /  20.7 °C 35.6 °F /  2 °C 30.41in /  1029.7hPa NNE 0.9mph /  1.4km/h 5.0mph /  8km/h 29% 0.00in /  0mm 615.0 W/m2
10:43 69.4 °F /  20.8 °C 35.8 °F /  2.1 °C 30.41in /  1029.7hPa Calm   6.0mph /  9.7km/h 29% 0.00in /  0mm 705.0 W/m2
10:49 69.6 °F /  20.9 °C 36.0 °F /  2.2 °C 30.40in /  1029.3hPa NE 4.0mph /  6.4km/h 4.0mph /  6.4km/h 29% 0.00in /  0mm 696.0 W/m2
10:55 70.0 °F /  21.1 °C 35.4 °F /  1.9 °C 30.40in /  1029.3hPa SSE 2.9mph /  4.7km/h 7.0mph /  11.3km/h 28% 0.00in /  0mm 599.0 W/m2
11:01 70.2 °F /  21.2 °C 36.5 °F /  2.5 °C 30.40in /  1029.3hPa Calm   1.0mph /  1.6km/h 29% 0.00in /  0mm 712.0 W/m2
11:08 70.5 °F /  21.4 °C 35.8 °F /  2.1 °C 30.40in /  1029.3hPa NE 0.9mph /  1.4km/h 2.0mph /  3.2km/h 28% 0.00in /  0mm 703.0 W/m2
11:13 71.1 °F /  21.7 °C 35.4 °F /  1.9 °C 30.39in /  1029hPa ENE 2.9mph /  4.7km/h 5.0mph /  8km/h 27% 0.00in /  0mm 738.0 W/m2
11:19 70.9 °F /  21.6 °C 36.1 °F /  2.3 °C 30.39in /  1029hPa ESE 4.9mph /  7.9km/h 8.0mph /  12.9km/h 28% 0.00in /  0mm 325.0 W/m2
11:25 70.3 °F /  21.3 °C 35.6 °F /  2 °C 30.39in /  1029hPa NNW 2.0mph /  3.2km/h 7.0mph /  11.3km/h 28% 0.00in /  0mm 575.0 W/m2
11:31 70.5 °F /  21.4 °C 34.9 °F /  1.6 °C 30.38in /  1028.7hPa Calm   5.0mph /  8km/h 27% 0.00in /  0mm 724.0 W/m2
11:37 70.9 °F /  21.6 °C 35.2 °F /  1.8 °C 30.38in /  1028.7hPa ENE 2.9mph /  4.7km/h 7.0mph /  11.3km/h 27% 0.00in /  0mm 612.0 W/m2
11:43 70.9 °F /  21.6 °C 35.2 °F /  1.8 °C 30.38in /  1028.7hPa Calm   4.0mph /  6.4km/h 27% 0.00in /  0mm 719.0 W/m2
11:50 70.5 °F /  21.4 °C 34.9 °F /  1.6 °C 30.38in /  1028.7hPa Calm   7.0mph /  11.3km/h 27% 0.00in /  0mm 596.0 W/m2
11:56 70.7 °F /  21.5 °C 35.1 °F /  1.7 °C 30.38in /  1028.7hPa NE 8.9mph /  14.3km/h 9.0mph /  14.5km/h 27% 0.00in /  0mm 666.0 W/m2
12:02 70.9 °F /  21.6 °C 34.3 °F /  1.3 °C 30.37in /  1028.3hPa NW 2.0mph /  3.2km/h 5.0mph /  8km/h 26% 0.00in /  0mm 745.0 W/m2
12:08 71.1 °F /  21.7 °C 34.5 °F /  1.4 °C 30.37in /  1028.3hPa Calm   1.0mph /  1.6km/h 26% 0.00in /  0mm 533.0 W/m2
12:14 70.9 °F /  21.6 °C 35.2 °F /  1.8 °C 30.37in /  1028.3hPa East 2.0mph /  3.2km/h 5.0mph /  8km/h 27% 0.00in /  0mm 701.0 W/m2
12:20 70.9 °F /  21.6 °C 34.3 °F /  1.3 °C 30.36in /  1028hPa Calm   2.0mph /  3.2km/h 26% 0.00in /  0mm 459.0 W/m2
12:27 71.1 °F /  21.7 °C 34.5 °F /  1.4 °C 30.35in /  1027.7hPa NNW 2.0mph /  3.2km/h 6.0mph /  9.7km/h 26% 0.00in /  0mm 735.0 W/m2
12:33 71.2 °F /  21.8 °C 34.5 °F /  1.4 °C 30.35in /  1027.7hPa Calm   3.0mph /  4.8km/h 26% 0.00in /  0mm 635.0 W/m2
12:39 71.1 °F /  21.7 °C 35.4 °F /  1.9 °C 30.34in /  1027.3hPa ENE 4.0mph /  6.4km/h 8.0mph /  12.9km/h 27% 0.00in /  0mm 663.0 W/m2
12:45 71.1 °F /  21.7 °C 34.5 °F /  1.4 °C 30.34in /  1027.3hPa NNW 2.0mph /  3.2km/h 4.0mph /  6.4km/h 26% 0.00in /  0mm 657.0 W/m2
12:51 71.4 °F /  21.9 °C 33.8 °F /  1 °C 30.34in /  1027.3hPa NNE 0.9mph /  1.4km/h 7.0mph /  11.3km/h 25% 0.00in /  0mm 643.0 W/m2
12:57 71.8 °F /  22.1 °C 34.0 °F /  1.1 °C 30.33in /  1027hPa Calm   2.0mph /  3.2km/h 25% 0.00in /  0mm 705.0 W/m2
13:03 72.1 °F /  22.3 °C 34.3 °F /  1.3 °C 30.33in /  1027hPa North 0.9mph /  1.4km/h 4.0mph /  6.4km/h 25% 0.00in /  0mm 594.0 W/m2
13:10 72.3 °F /  22.4 °C 34.5 °F /  1.4 °C 30.33in /  1027hPa NE 2.0mph /  3.2km/h 8.0mph /  12.9km/h 25% 0.00in /  0mm 670.0 W/m2
13:16 72.5 °F /  22.5 °C 33.6 °F /  0.9 °C 30.32in /  1026.6hPa NE 2.9mph /  4.7km/h 7.0mph /  11.3km/h 24% 0.00in /  0mm 575.0 W/m2
13:22 72.3 °F /  22.4 °C 33.4 °F /  0.8 °C 30.32in /  1026.6hPa NNW 4.0mph /  6.4km/h 6.0mph /  9.7km/h 24% 0.00in /  0mm 601.0 W/m2
13:28 72.3 °F /  22.4 °C 33.4 °F /  0.8 °C 30.31in /  1026.3hPa NNW 0.9mph /  1.4km/h 4.0mph /  6.4km/h 24% 0.00in /  0mm 640.0 W/m2
13:34 72.3 °F /  22.4 °C 32.4 °F /  0.2 °C 30.31in /  1026.3hPa Calm   4.0mph /  6.4km/h 23% 0.00in /  0mm 499.0 W/m2
13:40 72.5 °F /  22.5 °C 33.6 °F /  0.9 °C 30.32in /  1026.6hPa NNW 0.9mph /  1.4km/h 7.0mph /  11.3km/h 24% 0.00in /  0mm 587.0 W/m2
13:46 72.7 °F /  22.6 °C 31.6 °F /  -0.2 °C 30.31in /  1026.3hPa East 4.9mph /  7.9km/h 8.0mph /  12.9km/h 22% 0.00in /  0mm 545.0 W/m2
13:52 72.7 °F /  22.6 °C 32.7 °F /  0.4 °C 30.31in /  1026.3hPa NE 4.9mph /  7.9km/h 6.0mph /  9.7km/h 23% 0.00in /  0mm 591.0 W/m2
14:04 72.5 °F /  22.5 °C 31.5 °F /  -0.3 °C 30.31in /  1026.3hPa Calm   8.0mph /  12.9km/h 22% 0.00in /  0mm 550.0 W/m2
14:10 72.3 °F /  22.4 °C 31.3 °F /  -0.4 °C 30.31in /  1026.3hPa NNW 2.9mph /  4.7km/h 7.0mph /  11.3km/h 22% 0.00in /  0mm 550.0 W/m2
14:16 72.3 °F /  22.4 °C 31.3 °F /  -0.4 °C 30.31in /  1026.3hPa NE 0.9mph /  1.4km/h 6.0mph /  9.7km/h 22% 0.00in /  0mm 506.0 W/m2
14:22 72.3 °F /  22.4 °C 31.3 °F /  -0.4 °C 30.30in /  1026hPa Calm   6.0mph /  9.7km/h 22% 0.00in /  0mm 436.0 W/m2
14:28 72.5 °F /  22.5 °C 31.5 °F /  -0.3 °C 30.30in /  1026hPa Calm   1.0mph /  1.6km/h 22% 0.00in /  0mm 476.0 W/m2
14:34 72.5 °F /  22.5 °C 31.5 °F /  -0.3 °C 30.30in /  1026hPa NNE 2.9mph /  4.7km/h 8.0mph /  12.9km/h 22% 0.00in /  0mm 462.0 W/m2
14:40 72.5 °F /  22.5 °C 30.4 °F /  -0.9 °C 30.31in /  1026.3hPa North 6.9mph /  11.1km/h 11.0mph /  17.7km/h 21% 0.00in /  0mm 434.0 W/m2
14:46 72.3 °F /  22.4 °C 32.4 °F /  0.2 °C 30.31in /  1026.3hPa NW 0.9mph /  1.4km/h 6.0mph /  9.7km/h 23% 0.00in /  0mm 408.0 W/m2
14:52 72.3 °F /  22.4 °C 31.3 °F /  -0.4 °C 30.31in /  1026.3hPa Calm   6.0mph /  9.7km/h 22% 0.00in /  0mm 408.0 W/m2
14:58 72.3 °F /  22.4 °C 32.4 °F /  0.2 °C 30.31in /  1026.3hPa NW 4.0mph /  6.4km/h 7.0mph /  11.3km/h 23% 0.00in /  0mm 411.0 W/m2
15:04 72.3 °F /  22.4 °C 32.4 °F /  0.2 °C 30.31in /  1026.3hPa ENE 2.0mph /  3.2km/h 3.0mph /  4.8km/h 23% 0.00in /  0mm 378.0 W/m2
15:10 72.1 °F /  22.3 °C 32.4 °F /  0.2 °C 30.30in /  1026hPa ESE 2.9mph /  4.7km/h 3.0mph /  4.8km/h 23% 0.00in /  0mm 357.0 W/m2
15:16 72.1 °F /  22.3 °C 31.1 °F /  -0.5 °C 30.31in /  1026.3hPa SE 4.0mph /  6.4km/h 7.0mph /  11.3km/h 22% 0.00in /  0mm 359.0 W/m2
15:22 71.8 °F /  22.1 °C 32.0 °F /  0 °C 30.31in /  1026.3hPa Calm   7.0mph /  11.3km/h 23% 0.00in /  0mm 54.0 W/m2
15:28 71.8 °F /  22.1 °C 32.0 °F /  0 °C 30.31in /  1026.3hPa Calm   2.0mph /  3.2km/h 23% 0.00in /  0mm 47.0 W/m2
15:35 71.4 °F /  21.9 °C 31.6 °F /  -0.2 °C 30.31in /  1026.3hPa ESE 4.0mph /  6.4km/h 4.0mph /  6.4km/h 23% 0.00in /  0mm 44.0 W/m2
15:41 71.2 °F /  21.8 °C 31.5 °F /  -0.3 °C 30.31in /  1026.3hPa Calm   3.0mph /  4.8km/h 23% 0.00in /  0mm 42.0 W/m2
15:47 71.1 °F /  21.7 °C 31.5 °F /  -0.3 °C 30.31in /  1026.3hPa NE 4.0mph /  6.4km/h 7.0mph /  11.3km/h 23% 0.00in /  0mm 40.0 W/m2
15:53 70.9 °F /  21.6 °C 31.3 °F /  -0.4 °C 30.31in /  1026.3hPa NNW 0.9mph /  1.4km/h 5.0mph /  8km/h 23% 0.00in /  0mm 39.0 W/m2
15:59 70.3 °F /  21.3 °C 30.7 °F /  -0.7 °C 30.32in /  1026.6hPa NNE 6.0mph /  9.7km/h 7.0mph /  11.3km/h 23% 0.00in /  0mm 32.0 W/m2
16:05 70.2 °F /  21.2 °C 31.6 °F /  -0.2 °C 30.32in /  1026.6hPa North 0.9mph /  1.4km/h 4.0mph /  6.4km/h 24% 0.00in /  0mm 30.0 W/m2
16:11 69.8 °F /  21 °C 31.5 °F /  -0.3 °C 30.31in /  1026.3hPa NNE 2.9mph /  4.7km/h 3.0mph /  4.8km/h 24% 0.00in /  0mm 26.0 W/m2
16:19 69.3 °F /  20.7 °C 30.9 °F /  -0.6 °C 30.32in /  1026.6hPa Calm   5.0mph /  8km/h 24% 0.00in /  0mm 23.0 W/m2
16:26 69.1 °F /  20.6 °C 31.8 °F /  -0.1 °C 30.31in /  1026.3hPa NE 0.9mph /  1.4km/h 2.0mph /  3.2km/h 25% 0.00in /  0mm 26.0 W/m2
16:32 68.7 °F /  20.4 °C 30.4 °F /  -0.9 °C 30.32in /  1026.6hPa Calm   4.0mph /  6.4km/h 24% 0.00in /  0mm 28.0 W/m2
16:38 68.5 °F /  20.3 °C 30.4 °F /  -0.9 °C 30.32in /  1026.6hPa NE 2.9mph /  4.7km/h 5.0mph /  8km/h 24% 0.00in /  0mm 26.0 W/m2
16:44 68.4 °F /  20.2 °C 32.2 °F /  0.1 °C 30.32in /  1026.6hPa Calm     26% 0.00in /  0mm 25.0 W/m2
16:51 67.8 °F /  19.9 °C 32.5 °F /  0.3 °C 30.33in /  1027hPa Calm     27% 0.00in /  0mm 18.0 W/m2
16:56 67.5 °F /  19.7 °C 32.4 °F /  0.2 °C 30.33in /  1027hPa NE 0.9mph /  1.4km/h 1.0mph /  1.6km/h 27% 0.00in /  0mm 14.0 W/m2
17:02 66.7 °F /  19.3 °C 32.5 °F /  0.3 °C 30.33in /  1027hPa Calm   1.0mph /  1.6km/h 28% 0.00in /  0mm 9.0 W/m2
17:08 66.0 °F /  18.9 °C 32.0 °F /  0 °C 30.33in /  1027hPa Calm   1.0mph /  1.6km/h 28% 0.00in /  0mm 5.0 W/m2
17:15 65.5 °F /  18.6 °C 32.4 °F /  0.2 °C 30.33in /  1027hPa Calm   1.0mph /  1.6km/h 29% 0.00in /  0mm 0.0 W/m2
17:21 64.8 °F /  18.2 °C 32.5 °F /  0.3 °C 30.33in /  1027hPa Calm     30% 0.00in /  0mm 0.0 W/m2
17:27 63.9 °F /  17.7 °C 32.7 °F /  0.4 °C 30.34in /  1027.3hPa Calm     31% 0.00in /  0mm 0.0 W/m2
17:35 62.8 °F /  17.1 °C 32.5 °F /  0.3 °C 30.34in /  1027.3hPa Calm   1.0mph /  1.6km/h 32% 0.00in /  0mm 0.0 W/m2
17:41 61.9 °F /  16.6 °C 31.6 °F /  -0.2 °C 30.34in /  1027.3hPa Calm     32% 0.00in /  0mm 0.0 W/m2
17:47 61.2 °F /  16.2 °C 31.1 °F /  -0.5 °C 30.35in /  1027.7hPa Calm     32% 0.00in /  0mm 0.0 W/m2
17:53 60.4 °F /  15.8 °C 31.3 °F /  -0.4 °C 30.35in /  1027.7hPa Calm   1.0mph /  1.6km/h 33% 0.00in /  0mm 0.0 W/m2
18:00 60.1 °F /  15.6 °C 30.9 °F /  -0.6 °C 30.35in /  1027.7hPa Calm     33% 0.00in /  0mm 0.0 W/m2
18:06 59.5 °F /  15.3 °C 31.1 °F /  -0.5 °C 30.35in /  1027.7hPa Calm   1.0mph /  1.6km/h 34% 0.00in /  0mm 0.0 W/m2
18:12 59.2 °F /  15.1 °C 31.5 °F /  -0.3 °C 30.35in /  1027.7hPa Calm   1.0mph /  1.6km/h 35% 0.00in /  0mm 0.0 W/m2
18:18 58.8 °F /  14.9 °C 31.3 °F /  -0.4 °C 30.35in /  1027.7hPa Calm   3.0mph /  4.8km/h 35% 0.00in /  0mm 0.0 W/m2
18:24 58.5 °F /  14.7 °C 31.6 °F /  -0.2 °C 30.36in /  1028hPa Calm   1.0mph /  1.6km/h 36% 0.00in /  0mm 0.0 W/m2
18:30 58.3 °F /  14.6 °C 31.5 °F /  -0.3 °C 30.36in /  1028hPa Calm   2.0mph /  3.2km/h 36% 0.00in /  0mm 0.0 W/m2
18:36 57.9 °F /  14.4 °C 31.1 °F /  -0.5 °C 30.36in /  1028hPa Calm     36% 0.00in /  0mm 0.0 W/m2
18:43 57.6 °F /  14.2 °C 31.5 °F /  -0.3 °C 30.36in /  1028hPa Calm   1.0mph /  1.6km/h 37% 0.00in /  0mm 0.0 W/m2
18:49 57.4 °F /  14.1 °C 32.0 °F /  0 °C 30.37in /  1028.3hPa Calm     38% 0.00in /  0mm 0.0 W/m2
18:55 57.4 °F /  14.1 °C 31.3 °F /  -0.4 °C 30.37in /  1028.3hPa Calm   2.0mph /  3.2km/h 37% 0.00in /  0mm 0.0 W/m2
19:01 57.4 °F /  14.1 °C 31.3 °F /  -0.4 °C 30.37in /  1028.3hPa Calm     37% 0.00in /  0mm 0.0 W/m2
19:07 57.0 °F /  13.9 °C 30.9 °F /  -0.6 °C 30.37in /  1028.3hPa Calm     37% 0.00in /  0mm 0.0 W/m2
19:13 56.8 °F /  13.8 °C 31.5 °F /  -0.3 °C 30.38in /  1028.7hPa Calm   1.0mph /  1.6km/h 38% 0.00in /  0mm 0.0 W/m2
19:19 56.3 °F /  13.5 °C 31.1 °F /  -0.5 °C 30.38in /  1028.7hPa Calm   1.0mph /  1.6km/h 38% 0.00in /  0mm 0.0 W/m2
19:25 55.9 °F /  13.3 °C 30.7 °F /  -0.7 °C 30.38in /  1028.7hPa Calm     38% 0.00in /  0mm 0.0 W/m2
19:32 55.4 °F /  13 °C 30.9 °F /  -0.6 °C 30.38in /  1028.7hPa Calm   1.0mph /  1.6km/h 39% 0.00in /  0mm 0.0 W/m2
19:38 55.0 °F /  12.8 °C 31.1 °F /  -0.5 °C 30.38in /  1028.7hPa Calm     40% 0.00in /  0mm 0.0 W/m2
19:44 54.9 °F /  12.7 °C 30.9 °F /  -0.6 °C 30.38in /  1028.7hPa Calm     40% 0.00in /  0mm 0.0 W/m2
19:50 54.7 °F /  12.6 °C 31.5 °F /  -0.3 °C 30.38in /  1028.7hPa Calm     41% 0.00in /  0mm 0.0 W/m2
19:56 54.1 °F /  12.3 °C 31.5 °F /  -0.3 °C 30.38in /  1028.7hPa Calm     42% 0.00in /  0mm 0.0 W/m2
20:02 53.8 °F /  12.1 °C 31.3 °F /  -0.4 °C 30.39in /  1029hPa Calm     42% 0.00in /  0mm 0.0 W/m2
20:09 53.4 °F /  11.9 °C 31.5 °F /  -0.3 °C 30.39in /  1029hPa Calm     43% 0.00in /  0mm 0.0 W/m2
20:15 53.1 °F /  11.7 °C 31.1 °F /  -0.5 °C 30.39in /  1029hPa Calm   1.0mph /  1.6km/h 43% 0.00in /  0mm 0.0 W/m2
20:21 52.5 °F /  11.4 °C 30.7 °F /  -0.7 °C 30.40in /  1029.3hPa Calm     43% 0.00in /  0mm 0.0 W/m2
20:27 52.3 °F /  11.3 °C 30.6 °F /  -0.8 °C 30.40in /  1029.3hPa Calm     43% 0.00in /  0mm 0.0 W/m2
20:39 52.2 °F /  11.2 °C 30.9 °F /  -0.6 °C 30.40in /  1029.3hPa Calm     44% 0.00in /  0mm 0.0 W/m2
20:45 51.8 °F /  11 °C 31.1 °F /  -0.5 °C 30.40in /  1029.3hPa Calm     45% 0.00in /  0mm 0.0 W/m2
20:51 51.4 °F /  10.8 °C 30.7 °F /  -0.7 °C 30.40in /  1029.3hPa Calm   1.0mph /  1.6km/h 45% 0.00in /  0mm 0.0 W/m2
20:58 51.3 °F /  10.7 °C 30.6 °F /  -0.8 °C 30.40in /  1029.3hPa Calm   1.0mph /  1.6km/h 45% 0.00in /  0mm 0.0 W/m2
21:04 51.4 °F /  10.8 °C 30.7 °F /  -0.7 °C 30.40in /  1029.3hPa Calm     45% 0.00in /  0mm 0.0 W/m2
21:10 51.4 °F /  10.8 °C 30.7 °F /  -0.7 °C 30.40in /  1029.3hPa Calm     45% 0.00in /  0mm 0.0 W/m2
21:16 51.3 °F /  10.7 °C 30.6 °F /  -0.8 °C 30.40in /  1029.3hPa Calm     45% 0.00in /  0mm 0.0 W/m2
21:22 51.3 °F /  10.7 °C 30.6 °F /  -0.8 °C 30.41in /  1029.7hPa Calm     45% 0.00in /  0mm 0.0 W/m2
21:28 50.7 °F /  10.4 °C 30.7 °F /  -0.7 °C 30.41in /  1029.7hPa Calm   1.0mph /  1.6km/h 46% 0.00in /  0mm 0.0 W/m2
21:34 50.5 °F /  10.3 °C 30.6 °F /  -0.8 °C 30.41in /  1029.7hPa Calm   1.0mph /  1.6km/h 46% 0.00in /  0mm 0.0 W/m2
21:40 50.4 °F /  10.2 °C 30.4 °F /  -0.9 °C 30.41in /  1029.7hPa Calm   2.0mph /  3.2km/h 46% 0.00in /  0mm 0.0 W/m2
21:47 50.4 °F /  10.2 °C 30.4 °F /  -0.9 °C 30.41in /  1029.7hPa Calm   1.0mph /  1.6km/h 46% 0.00in /  0mm 0.0 W/m2
21:53 50.4 °F /  10.2 °C 30.4 °F /  -0.9 °C 30.41in /  1029.7hPa Calm     46% 0.00in /  0mm 0.0 W/m2
21:59 50.2 °F /  10.1 °C 30.7 °F /  -0.7 °C 30.41in /  1029.7hPa NE 0.9mph /  1.4km/h 3.0mph /  4.8km/h 47% 0.00in /  0mm 0.0 W/m2
22:05 49.8 °F /  9.9 °C 30.4 °F /  -0.9 °C 30.41in /  1029.7hPa Calm   2.0mph /  3.2km/h 47% 0.00in /  0mm 0.0 W/m2
22:11 49.8 °F /  9.9 °C 30.4 °F /  -0.9 °C 30.41in /  1029.7hPa Calm   4.0mph /  6.4km/h 47% 0.00in /  0mm 0.0 W/m2
22:17 49.6 °F /  9.8 °C 30.2 °F /  -1 °C 30.41in /  1029.7hPa Calm   3.0mph /  4.8km/h 47% 0.00in /  0mm 0.0 W/m2
22:23 49.5 °F /  9.7 °C 30.6 °F /  -0.8 °C 30.41in /  1029.7hPa Calm   1.0mph /  1.6km/h 48% 0.00in /  0mm 0.0 W/m2
22:29 49.5 °F /  9.7 °C 30.6 °F /  -0.8 °C 30.41in /  1029.7hPa Calm   2.0mph /  3.2km/h 48% 0.00in /  0mm 0.0 W/m2
22:35 49.3 °F /  9.6 °C 30.4 °F /  -0.9 °C 30.41in /  1029.7hPa Calm   1.0mph /  1.6km/h 48% 0.00in /  0mm 0.0 W/m2
22:41 49.3 °F /  9.6 °C 30.4 °F /  -0.9 °C 30.41in /  1029.7hPa Calm   1.0mph /  1.6km/h 48% 0.00in /  0mm 0.0 W/m2
22:47 49.1 °F /  9.5 °C 30.2 °F /  -1 °C 30.41in /  1029.7hPa Calm     48% 0.00in /  0mm 0.0 W/m2
22:53 49.1 °F /  9.5 °C 30.2 °F /  -1 °C 30.41in /  1029.7hPa Calm     48% 0.00in /  0mm 0.0 W/m2
23:00 48.9 °F /  9.4 °C 30.0 °F /  -1.1 °C 30.41in /  1029.7hPa Calm   1.0mph /  1.6km/h 48% 0.00in /  0mm 0.0 W/m2
23:06 48.7 °F /  9.3 °C 29.8 °F /  -1.2 °C 30.41in /  1029.7hPa Calm     48% 0.00in /  0mm 0.0 W/m2
23:12 48.6 °F /  9.2 °C 30.2 °F /  -1 °C 30.41in /  1029.7hPa Calm     49% 0.00in /  0mm 0.0 W/m2
23:18 48.6 °F /  9.2 °C 30.2 °F /  -1 °C 30.41in /  1029.7hPa Calm     49% 0.00in /  0mm 0.0 W/m2
23:24 48.2 °F /  9 °C 30.4 °F /  -0.9 °C 30.41in /  1029.7hPa Calm   2.0mph /  3.2km/h 50% 0.00in /  0mm 0.0 W/m2
23:30 48.0 °F /  8.9 °C 30.2 °F /  -1 °C 30.41in /  1029.7hPa Calm     50% 0.00in /  0mm 0.0 W/m2
23:36 47.8 °F /  8.8 °C 30.6 °F /  -0.8 °C 30.41in /  1029.7hPa Calm     51% 0.00in /  0mm 0.0 W/m2
23:42 47.7 °F /  8.7 °C 30.4 °F /  -0.9 °C 30.41in /  1029.7hPa Calm     51% 0.00in /  0mm 0.0 W/m2
23:48 47.7 °F /  8.7 °C 30.4 °F /  -0.9 °C 30.41in /  1029.7hPa Calm   1.0mph /  1.6km/h 51% 0.00in /  0mm 0.0 W/m2
23:54 47.5 °F /  8.6 °C 30.2 °F /  -1 °C 30.40in /  1029.3hPa Calm     51% 0.00in /  0mm 0.0 W/m2
Olympia, Windhoek, Namibia
Compliments of Weather Underground - 3 mb